Time;durP1;ratioP1;P1;durP2;ratioP2;P2;SDS_P1;SDS_P2;PMS_P1;PMS_P2;Temp;Humidity;BMP_temperature;BMP_pressure;BME280_temperature;BME280_humidity;BME280_pressure;Samples;Min_cycle;Max_cycle;Signal;HPM_P1;HPM_P2
2023/07/01 00:01:59;;;;;;;12.47;7.83;;;;;;;;;;5020914;28;20301;-75
2023/07/01 00:04:25;;;;;;;13.00;8.07;;;;;;;;;;5027602;28;20224;-75
2023/07/01 00:06:50;;;;;;;15.20;7.97;;;;;;;;;;5020093;28;20796;-74
2023/07/01 00:09:15;;;;;;;16.17;7.67;;;;;;;;;;5025422;28;20226;-75
2023/07/01 00:11:40;;;;;;;14.60;7.50;;;;;;;;;;5022990;28;20234;-75
2023/07/01 00:14:06;;;;;;;10.40;7.27;;;;;;;;;;5025829;28;20218;-76
2023/07/01 00:16:31;;;;;;;14.03;7.80;;;;;;;;;;5027603;28;20233;-76
2023/07/01 00:18:56;;;;;;;16.77;7.90;;;;;;;;;;5010191;28;20654;-75
2023/07/01 00:21:22;;;;;;;12.17;7.43;;;;;;;;;;5021826;28;20215;-75
2023/07/01 00:23:47;;;;;;;11.53;7.53;;;;;;;;;;5028184;28;20694;-75
2023/07/01 00:26:12;;;;;;;13.80;7.43;;;;;;;;;;5021992;28;20788;-75
2023/07/01 00:28:37;;;;;;;13.50;7.90;;;;;;;;;;5020801;28;20219;-74
2023/07/01 00:31:03;;;;;;;15.20;7.77;;;;;;;;;;5027013;28;20234;-75
2023/07/01 00:33:28;;;;;;;13.07;8.00;;;;;;;;;;5026581;28;20367;-76
2023/07/01 00:35:53;;;;;;;10.97;7.90;;;;;;;;;;5023076;28;20214;-76
2023/07/01 00:38:18;;;;;;;13.97;8.00;;;;;;;;;;5023137;28;20610;-76
2023/07/01 00:40:44;;;;;;;13.17;7.83;;;;;;;;;;5017280;28;20231;-76
2023/07/01 00:43:09;;;;;;;11.63;7.40;;;;;;;;;;5014840;28;20228;-76
2023/07/01 00:45:34;;;;;;;14.40;8.10;;;;;;;;;;5022144;28;20342;-76
2023/07/01 00:48:00;;;;;;;19.20;7.47;;;;;;;;;;5024331;28;20228;-75
2023/07/01 00:50:25;;;;;;;16.40;7.80;;;;;;;;;;5010598;28;20238;-76
2023/07/01 00:52:50;;;;;;;15.93;7.87;;;;;;;;;;5023197;28;20237;-76
2023/07/01 00:55:15;;;;;;;11.43;7.63;;;;;;;;;;5002865;28;20223;-76
2023/07/01 00:57:41;;;;;;;15.13;7.77;;;;;;;;;;5000585;28;20725;-76
2023/07/01 01:00:10;;;;;;;11.53;7.40;;;;;;;;;;5020954;28;20227;-76
2023/07/01 01:02:55;;;;;;;14.60;7.87;;;;;;;;;;5026390;28;20302;-76
2023/07/01 01:05:23;;;;;;;11.87;7.67;;;;;;;;;;5035998;28;20334;-76
2023/07/01 01:08:09;;;;;;;13.30;7.57;;;;;;;;;;5024846;28;20750;-76
2023/07/01 01:10:34;;;;;;;11.57;7.50;;;;;;;;;;5021304;28;20316;-76
2023/07/01 01:13:00;;;;;;;12.83;7.67;;;;;;;;;;5020133;28;20713;-76
2023/07/01 01:15:26;;;;;;;11.60;7.40;;;;;;;;;;5023872;28;20230;-77
2023/07/01 01:17:51;;;;;;;12.57;7.33;;;;;;;;;;5028232;28;20714;-76
2023/07/01 01:20:20;;;;;;;13.20;7.67;;;;;;;;;;5027528;28;20229;-76
2023/07/01 01:23:06;;;;;;;16.67;7.77;;;;;;;;;;5021016;28;20223;-77
2023/07/01 01:25:34;;;;;;;12.37;7.30;;;;;;;;;;5024316;28;20711;-76
2023/07/01 01:27:59;;;;;;;11.77;7.70;;;;;;;;;;5029422;28;20233;-76
2023/07/01 01:30:24;;;;;;;12.63;7.27;;;;;;;;;;5028327;28;20221;-75
2023/07/01 01:32:49;;;;;;;13.37;7.53;;;;;;;;;;5028605;28;20251;-75
2023/07/01 01:35:15;;;;;;;13.83;7.50;;;;;;;;;;5027904;28;20215;-76
2023/07/01 01:37:40;;;;;;;14.30;7.87;;;;;;;;;;5030269;28;20273;-75
2023/07/01 01:40:10;;;;;;;11.97;7.67;;;;;;;;;;5023229;28;20653;-75
2023/07/01 01:42:35;;;;;;;12.20;7.43;;;;;;;;;;5032917;28;20217;-76
2023/07/01 01:45:00;;;;;;;11.03;7.97;;;;;;;;;;5026364;28;20281;-76
2023/07/01 01:47:27;;;;;;;10.83;7.57;;;;;;;;;;5019232;28;20700;-76
2023/07/01 01:49:53;;;;;;;14.43;8.10;;;;;;;;;;5026898;28;20245;-76
2023/07/01 01:52:18;;;;;;;11.87;8.37;;;;;;;;;;5030694;28;20249;-76
2023/07/01 01:54:44;;;;;;;12.50;7.80;;;;;;;;;;5024506;28;20257;-76
2023/07/01 01:57:09;;;;;;;10.33;7.97;;;;;;;;;;5020579;28;20272;-75
2023/07/01 01:59:35;;;;;;;15.03;8.17;;;;;;;;;;5010578;28;20223;-76
2023/07/01 02:02:00;;;;;;;12.67;8.77;;;;;;;;;;5024867;28;20225;-76
2023/07/01 02:04:26;;;;;;;11.93;8.20;;;;;;;;;;5027466;28;20240;-76
2023/07/01 02:06:51;;;;;;;11.70;8.50;;;;;;;;;;5021146;28;20226;-75
2023/07/01 02:09:16;;;;;;;11.77;7.90;;;;;;;;;;5015967;28;20245;-76
2023/07/01 02:11:42;;;;;;;11.83;8.37;;;;;;;;;;5025608;28;20256;-75
2023/07/01 02:14:07;;;;;;;13.43;7.97;;;;;;;;;;5029568;28;20254;-76
2023/07/01 02:16:33;;;;;;;12.07;7.97;;;;;;;;;;5025236;28;20312;-75
2023/07/01 02:18:58;;;;;;;12.87;7.80;;;;;;;;;;5024414;28;20681;-75
2023/07/01 02:21:24;;;;;;;12.27;7.60;;;;;;;;;;5026261;28;20301;-76
2023/07/01 02:23:49;;;;;;;11.70;7.83;;;;;;;;;;5036761;28;20235;-76
2023/07/01 02:26:14;;;;;;;11.87;7.90;;;;;;;;;;5028033;28;20221;-75
2023/07/01 02:28:39;;;;;;;12.87;7.97;;;;;;;;;;5021452;28;20856;-76
2023/07/01 02:31:05;;;;;;;11.63;7.90;;;;;;;;;;5023069;28;20296;-76
2023/07/01 02:33:30;;;;;;;12.43;7.43;;;;;;;;;;5026941;28;20313;-76
2023/07/01 02:35:56;;;;;;;11.93;7.67;;;;;;;;;;5026768;28;20230;-74
2023/07/01 02:38:21;;;;;;;10.57;7.60;;;;;;;;;;5025667;28;20611;-75
2023/07/01 02:40:46;;;;;;;10.20;7.63;;;;;;;;;;5025538;28;20229;-75
2023/07/01 02:43:11;;;;;;;11.30;7.60;;;;;;;;;;5026424;28;20291;-75
2023/07/01 02:45:37;;;;;;;13.70;7.77;;;;;;;;;;5035829;28;20219;-75
2023/07/01 02:48:02;;;;;;;13.57;8.10;;;;;;;;;;5028404;28;20226;-76
2023/07/01 02:50:28;;;;;;;13.10;8.20;;;;;;;;;;5027629;28;20239;-74
2023/07/01 02:52:53;;;;;;;13.30;7.60;;;;;;;;;;5030507;28;20214;-75
2023/07/01 02:55:19;;;;;;;11.43;7.93;;;;;;;;;;5027011;28;20225;-75
2023/07/01 02:57:44;;;;;;;10.23;7.33;;;;;;;;;;5023753;28;20250;-75
2023/07/01 03:00:14;;;;;;;11.53;7.60;;;;;;;;;;5024033;28;20218;-76
2023/07/01 03:02:39;;;;;;;14.97;7.67;;;;;;;;;;5032919;28;20229;-75
2023/07/01 03:05:04;;;;;;;10.97;7.70;;;;;;;;;;5019205;28;20297;-75
2023/07/01 03:07:29;;;;;;;10.00;7.73;;;;;;;;;;5039209;28;20240;-76
2023/07/01 03:09:55;;;;;;;10.90;7.43;;;;;;;;;;5016514;28;20222;-75
2023/07/01 03:12:20;;;;;;;9.73;7.07;;;;;;;;;;5024149;28;20249;-75
2023/07/01 03:14:45;;;;;;;11.33;7.63;;;;;;;;;;5002427;28;20230;-75
2023/07/01 03:17:11;;;;;;;9.67;7.50;;;;;;;;;;4998908;28;20410;-75
2023/07/01 03:19:36;;;;;;;9.80;6.80;;;;;;;;;;5017999;28;20233;-75
2023/07/01 03:22:01;;;;;;;11.00;7.20;;;;;;;;;;5013638;28;20659;-77
2023/07/01 03:24:33;;;;;;;9.03;7.17;;;;;;;;;;5000486;28;20231;-75
2023/07/01 03:27:00;;;;;;;9.33;6.23;;;;;;;;;;4997147;28;20230;-75
2023/07/01 03:29:25;;;;;;;9.30;6.47;;;;;;;;;;5017729;28;20316;-75
2023/07/01 03:31:50;;;;;;;9.93;6.63;;;;;;;;;;5000294;28;20335;-76
2023/07/01 03:34:15;;;;;;;9.13;6.40;;;;;;;;;;5018808;28;20699;-75
2023/07/01 03:36:41;;;;;;;8.63;6.30;;;;;;;;;;5020151;28;20261;-76
2023/07/01 03:39:06;;;;;;;9.50;6.50;;;;;;;;;;5023330;28;20249;-76
2023/07/01 03:41:31;;;;;;;9.33;6.83;;;;;;;;;;4994468;28;20219;-76
2023/07/01 03:43:56;;;;;;;11.73;7.07;;;;;;;;;;5021104;28;20584;-76
2023/07/01 03:46:22;;;;;;;8.30;6.73;;;;;;;;;;5031955;28;20787;-76
2023/07/01 03:48:47;;;;;;;9.13;6.60;;;;;;;;;;5019999;28;20246;-76
2023/07/01 03:51:12;;;;;;;8.73;6.53;;;;;;;;;;5026245;28;20230;-77
2023/07/01 03:53:37;;;;;;;13.43;7.10;;;;;;;;;;5010745;28;20235;-76
2023/07/01 03:56:03;;;;;;;11.50;6.80;;;;;;;;;;4997750;28;20219;-75
2023/07/01 03:58:29;;;;;;;7.77;6.83;;;;;;;;;;5018279;28;20254;-77
2023/07/01 04:00:54;;;;;;;10.77;6.87;;;;;;;;;;5024412;28;20360;-76
2023/07/01 04:03:23;;;;;;;11.17;6.97;;;;;;;;;;5021658;28;20290;-76
2023/07/01 04:05:49;;;;;;;10.00;6.90;;;;;;;;;;5037241;28;20222;-76
2023/07/01 04:08:14;;;;;;;11.07;7.40;;;;;;;;;;5001595;28;20218;-76
2023/07/01 04:10:39;;;;;;;9.70;7.00;;;;;;;;;;4998778;28;20230;-76
2023/07/01 04:13:04;;;;;;;9.70;7.47;;;;;;;;;;5021727;28;20244;-76
2023/07/01 04:15:30;;;;;;;10.27;7.30;;;;;;;;;;5007566;28;20251;-76
2023/07/01 04:17:56;;;;;;;10.47;7.40;;;;;;;;;;5022666;28;20257;-75
2023/07/01 04:20:21;;;;;;;13.50;7.50;;;;;;;;;;5022159;28;20892;-77
2023/07/01 04:22:46;;;;;;;9.67;7.27;;;;;;;;;;5018155;28;20225;-75
2023/07/01 04:25:12;;;;;;;9.77;7.60;;;;;;;;;;5027637;28;20321;-76
2023/07/01 04:27:37;;;;;;;8.67;7.37;;;;;;;;;;5027025;28;20340;-76
2023/07/01 04:30:03;;;;;;;13.87;8.17;;;;;;;;;;5011105;28;20214;-77
2023/07/01 04:32:28;;;;;;;12.50;8.20;;;;;;;;;;4994595;28;20234;-77
2023/07/01 04:34:54;;;;;;;12.13;8.40;;;;;;;;;;5015357;28;20766;-77
2023/07/01 04:37:19;;;;;;;13.23;8.00;;;;;;;;;;5011077;28;20220;-77
2023/07/01 04:39:44;;;;;;;12.47;8.00;;;;;;;;;;5021929;28;20222;-76
2023/07/01 04:42:09;;;;;;;10.53;8.13;;;;;;;;;;5022580;28;20225;-76
2023/07/01 04:44:35;;;;;;;12.60;8.67;;;;;;;;;;5020585;28;20238;-76
2023/07/01 04:47:00;;;;;;;14.53;8.57;;;;;;;;;;5024188;28;20226;-75
2023/07/01 04:49:26;;;;;;;13.07;8.57;;;;;;;;;;5037276;28;20245;-76
2023/07/01 04:51:51;;;;;;;11.00;8.13;;;;;;;;;;5019644;28;20265;-76
2023/07/01 04:54:16;;;;;;;13.57;7.93;;;;;;;;;;5026399;28;20242;-75
2023/07/01 04:56:42;;;;;;;13.53;9.50;;;;;;;;;;5019852;28;20735;-76
2023/07/01 04:59:07;;;;;;;16.70;9.97;;;;;;;;;;5024993;28;20275;-76
2023/07/01 05:01:32;;;;;;;13.60;9.13;;;;;;;;;;4993187;28;20250;-76
2023/07/01 05:03:58;;;;;;;14.67;9.20;;;;;;;;;;5025104;28;20245;-76
2023/07/01 05:06:23;;;;;;;16.13;10.30;;;;;;;;;;5025471;28;20245;-76
2023/07/01 05:08:48;;;;;;;16.13;10.37;;;;;;;;;;5000147;28;20749;-76
2023/07/01 05:11:13;;;;;;;18.20;10.57;;;;;;;;;;5015223;28;20235;-75
2023/07/01 05:13:39;;;;;;;17.47;10.80;;;;;;;;;;4999328;28;20238;-76
2023/07/01 05:16:05;;;;;;;17.63;10.50;;;;;;;;;;4997165;28;20242;-75
2023/07/01 05:18:30;;;;;;;16.77;11.27;;;;;;;;;;4997837;28;20227;-75
2023/07/01 05:20:55;;;;;;;16.23;10.60;;;;;;;;;;5013980;28;20273;-75
2023/07/01 05:23:20;;;;;;;15.07;10.27;;;;;;;;;;4996358;28;20222;-77
2023/07/01 05:25:46;;;;;;;17.70;10.50;;;;;;;;;;4998160;28;21185;-77
2023/07/01 05:28:11;;;;;;;16.13;10.17;;;;;;;;;;4997887;28;20255;-73
2023/07/01 05:30:37;;;;;;;17.80;10.03;;;;;;;;;;5013159;28;20341;-73
2023/07/01 05:33:02;;;;;;;17.33;10.83;;;;;;;;;;5013155;28;20233;-73
2023/07/01 05:35:27;;;;;;;15.67;10.70;;;;;;;;;;4998071;28;20219;-73
2023/07/01 05:37:53;;;;;;;16.10;9.93;;;;;;;;;;4998948;28;20230;-73
2023/07/01 05:40:18;;;;;;;14.50;10.07;;;;;;;;;;5018536;28;20222;-73
2023/07/01 05:42:45;;;;;;;15.80;10.87;;;;;;;;;;5014744;28;20276;-73
2023/07/01 05:45:10;;;;;;;16.27;10.37;;;;;;;;;;5009363;28;20719;-73
2023/07/01 05:47:36;;;;;;;17.57;10.23;;;;;;;;;;5012387;28;20227;-73
2023/07/01 05:50:01;;;;;;;17.77;9.80;;;;;;;;;;4996499;28;20225;-72
2023/07/01 05:52:26;;;;;;;16.63;10.07;;;;;;;;;;5002404;28;20238;-73
2023/07/01 05:54:52;;;;;;;14.70;9.70;;;;;;;;;;5014987;28;20369;-73
2023/07/01 05:57:18;;;;;;;13.27;9.90;;;;;;;;;;5011061;28;20247;-73
2023/07/01 05:59:43;;;;;;;14.70;9.80;;;;;;;;;;5014207;28;20719;-73
2023/07/01 06:02:08;;;;;;;12.10;9.07;;;;;;;;;;5004392;28;20234;-74
2023/07/01 06:04:34;;;;;;;15.90;10.07;;;;;;;;;;4994902;28;20775;-73
2023/07/01 06:06:59;;;;;;;15.57;9.20;;;;;;;;;;4981206;28;20234;-73
2023/07/01 06:09:24;;;;;;;15.27;9.70;;;;;;;;;;5016607;28;20215;-73
2023/07/01 06:11:49;;;;;;;14.57;9.83;;;;;;;;;;5015339;28;20938;-73
2023/07/01 06:14:15;;;;;;;13.90;9.80;;;;;;;;;;5013383;28;20223;-74
2023/07/01 06:16:40;;;;;;;15.93;10.13;;;;;;;;;;4999622;28;20222;-74
2023/07/01 06:19:05;;;;;;;14.23;10.23;;;;;;;;;;5001506;28;20218;-73
2023/07/01 06:21:31;;;;;;;15.00;10.00;;;;;;;;;;4999869;28;20223;-74
2023/07/01 06:23:56;;;;;;;16.13;9.80;;;;;;;;;;4999763;28;20719;-73
2023/07/01 06:26:21;;;;;;;14.50;9.87;;;;;;;;;;4981228;28;20230;-74
2023/07/01 06:28:47;;;;;;;13.43;9.17;;;;;;;;;;4980086;28;20239;-74
2023/07/01 06:31:12;;;;;;;15.20;9.30;;;;;;;;;;5009097;28;20314;-74
2023/07/01 06:33:40;;;;;;;15.30;9.83;;;;;;;;;;4992112;28;20318;-75
2023/07/01 06:36:06;;;;;;;14.57;9.40;;;;;;;;;;4996685;28;20229;-74
2023/07/01 06:38:31;;;;;;;15.03;9.20;;;;;;;;;;4995081;28;20236;-74
2023/07/01 06:40:57;;;;;;;16.33;9.40;;;;;;;;;;4998204;28;20269;-77
2023/07/01 06:43:22;;;;;;;13.47;9.17;;;;;;;;;;5011540;28;20258;-78
2023/07/01 06:45:48;;;;;;;13.37;8.60;;;;;;;;;;5001486;28;20266;-78
2023/07/01 06:48:13;;;;;;;14.27;9.33;;;;;;;;;;4997755;28;20742;-78
2023/07/01 06:50:38;;;;;;;14.10;8.73;;;;;;;;;;4996984;28;20663;-78
2023/07/01 06:53:04;;;;;;;12.03;9.10;;;;;;;;;;4981973;28;20242;-76
2023/07/01 06:55:30;;;;;;;15.90;9.57;;;;;;;;;;5017812;28;20597;-77
2023/07/01 06:57:55;;;;;;;16.30;8.50;;;;;;;;;;4993498;28;20773;-81
2023/07/01 07:00:20;;;;;;;12.53;8.70;;;;;;;;;;4995973;28;20271;-80
2023/07/01 07:02:45;;;;;;;14.03;8.53;;;;;;;;;;4981567;28;20223;-76
2023/07/01 07:05:11;;;;;;;13.93;8.77;;;;;;;;;;5013461;28;20697;-77
2023/07/01 07:07:36;;;;;;;15.73;8.50;;;;;;;;;;5034592;28;20618;-79
2023/07/01 07:10:02;;;;;;;14.83;8.50;;;;;;;;;;5017532;28;20230;-80
2023/07/01 07:12:27;;;;;;;14.47;8.90;;;;;;;;;;5032350;28;20296;-79
2023/07/01 07:14:52;;;;;;;12.03;8.63;;;;;;;;;;5021258;28;20781;-79
2023/07/01 07:17:18;;;;;;;14.47;8.83;;;;;;;;;;5021993;28;20223;-80
2023/07/01 07:19:43;;;;;;;15.07;9.10;;;;;;;;;;5032926;28;20677;-78
2023/07/01 07:22:08;;;;;;;16.53;8.00;;;;;;;;;;4994610;28;20217;-79
2023/07/01 07:24:34;;;;;;;10.50;8.33;;;;;;;;;;5000459;28;20309;-78
2023/07/01 07:27:00;;;;;;;13.10;8.53;;;;;;;;;;5023734;28;20249;-78
2023/07/01 07:29:26;;;;;;;13.10;8.30;;;;;;;;;;5015286;28;20354;-78
2023/07/01 07:31:51;;;;;;;14.93;8.40;;;;;;;;;;5024422;28;20272;-77
2023/07/01 07:34:16;;;;;;;12.80;8.80;;;;;;;;;;5021709;28;20226;-80
2023/07/01 07:36:42;;;;;;;12.43;8.50;;;;;;;;;;5015429;28;20222;-80
2023/07/01 07:39:08;;;;;;;13.17;8.40;;;;;;;;;;5030225;28;20206;-81
2023/07/01 07:41:34;;;;;;;16.90;8.85;;;;;;;;;;5010684;28;20223;-80
2023/07/01 07:43:59;;;;;;;12.27;7.80;;;;;;;;;;5020610;28;20331;-80
2023/07/01 07:46:24;;;;;;;12.82;8.43;;;;;;;;;;5029520;28;20317;-81
2023/07/01 07:48:50;;;;;;;13.82;8.43;;;;;;;;;;5027907;28;20324;-81
2023/07/01 07:51:15;;;;;;;13.52;8.43;;;;;;;;;;5028709;28;20261;-81
2023/07/01 07:53:40;;;;;;;13.15;8.20;;;;;;;;;;5023794;28;20229;-81
2023/07/01 07:56:05;;;;;;;15.13;8.55;;;;;;;;;;5027858;28;20295;-79
2023/07/01 07:58:31;;;;;;;12.63;8.15;;;;;;;;;;5025178;28;20237;-77
2023/07/01 08:00:56;;;;;;;10.15;7.53;;;;;;;;;;5026465;28;20237;-82
2023/07/01 08:03:21;;;;;;;11.98;7.80;;;;;;;;;;5019989;28;20675;-78
2023/07/01 08:05:48;;;;;;;9.37;7.27;;;;;;;;;;5024784;28;20258;-80
2023/07/01 08:08:14;;;;;;;13.88;8.10;;;;;;;;;;4999256;28;20289;-78
2023/07/01 08:10:44;;;;;;;11.65;7.80;;;;;;;;;;4997916;28;20223;-80
2023/07/01 08:13:09;;;;;;;15.50;8.45;;;;;;;;;;5015062;28;20230;-79
2023/07/01 08:15:34;;;;;;;12.65;8.25;;;;;;;;;;5019528;28;20229;-79
2023/07/01 08:17:59;;;;;;;11.75;7.82;;;;;;;;;;5024534;28;20218;-76
2023/07/01 08:20:25;;;;;;;12.95;7.75;;;;;;;;;;5014509;28;20227;-80
2023/07/01 08:22:50;;;;;;;12.73;7.60;;;;;;;;;;5025329;28;20237;-80
2023/07/01 08:25:15;;;;;;;10.63;8.00;;;;;;;;;;5018928;28;20317;-79
2023/07/01 08:27:41;;;;;;;10.45;7.78;;;;;;;;;;5024069;28;20222;-77
2023/07/01 08:30:06;;;;;;;13.13;7.65;;;;;;;;;;5025868;28;20297;-80
2023/07/01 08:32:33;;;;;;;9.85;8.05;;;;;;;;;;5033110;28;20241;-80
2023/07/01 08:34:58;;;;;;;11.70;7.90;;;;;;;;;;5019283;28;20227;-78
2023/07/01 08:37:25;;;;;;;11.10;7.82;;;;;;;;;;5020394;28;20226;-79
2023/07/01 08:39:50;;;;;;;11.20;7.78;;;;;;;;;;5023884;28;20222;-82
2023/07/01 08:42:16;;;;;;;12.63;7.43;;;;;;;;;;5024009;28;20283;-80
2023/07/01 08:44:41;;;;;;;12.35;7.35;;;;;;;;;;5019391;28;20261;-83
2023/07/01 08:47:07;;;;;;;11.00;7.22;;;;;;;;;;5020410;28;20241;-80
2023/07/01 08:49:32;;;;;;;11.00;7.53;;;;;;;;;;5022763;28;20337;-82
2023/07/01 08:52:16;;;;;;;9.90;6.80;;;;;;;;;;5024341;28;20242;-79
2023/07/01 08:54:41;;;;;;;12.65;6.88;;;;;;;;;;5010583;28;20222;-82
2023/07/01 08:57:10;;;;;;;8.60;6.45;;;;;;;;;;5020948;28;20233;-80
2023/07/01 08:59:35;;;;;;;11.07;6.55;;;;;;;;;;5026399;28;20228;-80
2023/07/01 09:02:01;;;;;;;12.38;6.32;;;;;;;;;;5021938;28;20314;-79
2023/07/01 09:04:27;;;;;;;9.35;6.68;;;;;;;;;;5024063;28;20252;-82
2023/07/01 09:06:52;;;;;;;10.52;6.07;;;;;;;;;;5019133;28;20498;-79
2023/07/01 09:09:18;;;;;;;9.02;6.10;;;;;;;;;;5034753;28;20225;-81
2023/07/01 09:11:43;;;;;;;8.45;6.30;;;;;;;;;;5017606;28;20279;-80
2023/07/01 09:14:08;;;;;;;8.00;6.13;;;;;;;;;;5024042;28;20229;-80
2023/07/01 09:16:34;;;;;;;8.45;6.18;;;;;;;;;;5005508;28;20307;-76
2023/07/01 09:19:21;;;;;;;8.02;5.93;;;;;;;;;;5018014;28;20230;-81
2023/07/01 09:21:46;;;;;;;7.70;6.00;;;;;;;;;;5003680;28;20226;-81
2023/07/01 09:24:12;;;;;;;7.20;5.88;;;;;;;;;;5015611;28;20219;-82
2023/07/01 09:26:37;;;;;;;7.53;5.80;;;;;;;;;;5019494;28;20230;-78
2023/07/01 09:29:09;;;;;;;7.68;5.90;;;;;;;;;;5022415;28;20325;-80
2023/07/01 09:31:47;;;;;;;8.63;5.72;;;;;;;;;;5022104;28;20254;-79
2023/07/01 09:34:13;;;;;;;10.38;5.70;;;;;;;;;;5009198;28;20241;-78
2023/07/01 09:36:38;;;;;;;10.82;6.88;;;;;;;;;;5022842;28;20226;-83
2023/07/01 09:39:05;;;;;;;11.23;5.90;;;;;;;;;;5014361;28;20226;-79
2023/07/01 09:41:30;;;;;;;8.63;5.97;;;;;;;;;;5025621;28;20226;-79
2023/07/01 09:43:56;;;;;;;7.57;5.57;;;;;;;;;;5027973;28;20218;-81
2023/07/01 09:46:22;;;;;;;7.13;5.47;;;;;;;;;;5016742;28;20211;-82
2023/07/01 09:48:54;;;;;;;7.85;6.13;;;;;;;;;;5023658;28;20348;-81
2023/07/01 09:51:20;;;;;;;8.07;6.38;;;;;;;;;;5024033;28;20261;-82
2023/07/01 09:53:45;;;;;;;11.18;6.50;;;;;;;;;;5010633;28;20230;-81
2023/07/01 09:56:10;;;;;;;9.07;6.15;;;;;;;;;;5026076;28;20612;-82
2023/07/01 09:58:36;;;;;;;8.23;6.00;;;;;;;;;;5007024;28;20222;-83
2023/07/01 10:01:01;;;;;;;11.50;5.88;;;;;;;;;;5023691;28;20226;-83
2023/07/01 10:03:27;;;;;;;10.00;6.00;;;;;;;;;;5007220;28;20284;-81
2023/07/01 10:05:52;;;;;;;7.53;5.90;;;;;;;;;;5023803;28;20233;-79
2023/07/01 10:08:17;;;;;;;8.57;6.15;;;;;;;;;;4996304;28;20304;-83
2023/07/01 10:10:42;;;;;;;10.80;5.90;;;;;;;;;;5022721;28;20699;-80
2023/07/01 10:13:08;;;;;;;9.07;6.43;;;;;;;;;;4996243;28;20238;-81
2023/07/01 10:15:33;;;;;;;9.32;5.93;;;;;;;;;;5019302;28;20369;-83
2023/07/01 10:17:59;;;;;;;8.88;6.13;;;;;;;;;;5024452;28;20904;-81
2023/07/01 10:20:25;;;;;;;8.40;6.38;;;;;;;;;;5025044;28;20225;-84
2023/07/01 10:22:55;;;;;;;10.73;6.45;;;;;;;;;;5020693;28;20261;-84
2023/07/01 10:25:32;;;;;;;10.63;6.82;;;;;;;;;;5022644;28;20229;-82
2023/07/01 10:27:59;;;;;;;9.23;6.47;;;;;;;;;;5019319;28;20238;-82
2023/07/01 10:30:24;;;;;;;8.45;6.13;;;;;;;;;;5025166;28;20292;-79
2023/07/01 10:32:50;;;;;;;11.80;6.53;;;;;;;;;;5039114;28;20239;-80
2023/07/01 10:35:15;;;;;;;9.73;6.90;;;;;;;;;;5016689;28;20218;-81
2023/07/01 10:37:41;;;;;;;11.02;7.07;;;;;;;;;;5024714;28;20295;-83
2023/07/01 10:40:24;;;;;;;9.20;6.82;;;;;;;;;;5017675;28;20301;-81
2023/07/01 10:42:49;;;;;;;10.02;6.72;;;;;;;;;;5035590;28;20218;-84
2023/07/01 10:45:15;;;;;;;9.85;7.20;;;;;;;;;;5024717;28;20221;-82
2023/07/01 10:47:48;;;;;;;9.50;6.80;;;;;;;;;;5022662;28;20747;-80
2023/07/01 10:50:17;;;;;;;9.93;6.85;;;;;;;;;;5025634;28;20620;-83
2023/07/01 10:53:01;;;;;;;8.60;6.70;;;;;;;;;;5015030;28;20321;-81
2023/07/01 10:55:32;;;;;;;11.52;7.03;;;;;;;;;;5018045;28;20222;-80
2023/07/01 10:58:16;;;;;;;10.50;6.80;;;;;;;;;;5020354;28;20239;-78
2023/07/01 11:00:41;;;;;;;9.35;6.45;;;;;;;;;;5011631;28;20280;-80
2023/07/01 11:03:30;;;;;;;8.40;6.75;;;;;;;;;;4992547;28;20302;-80
2023/07/01 11:06:01;;;;;;;11.07;7.35;;;;;;;;;;5009293;28;20317;-79
2023/07/01 11:08:27;;;;;;;9.75;6.65;;;;;;;;;;4994718;28;20685;-80
2023/07/01 11:10:52;;;;;;;10.30;6.40;;;;;;;;;;5023177;28;20233;-78
2023/07/01 11:13:18;;;;;;;9.02;6.85;;;;;;;;;;5014525;28;20226;-80
2023/07/01 11:15:57;;;;;;;9.98;6.38;;;;;;;;;;5015078;28;20257;-77
2023/07/01 11:18:22;;;;;;;9.60;6.88;;;;;;;;;;5020378;28;20221;-81
2023/07/01 11:20:48;;;;;;;12.70;6.75;;;;;;;;;;5018890;28;20219;-80
2023/07/01 11:23:13;;;;;;;10.27;6.22;;;;;;;;;;5020564;28;20231;-80
2023/07/01 11:25:41;;;;;;;9.90;6.97;;;;;;;;;;5020924;28;20219;-85
2023/07/01 11:28:07;;;;;;;8.68;6.50;;;;;;;;;;5011258;28;20226;-77
2023/07/01 11:30:32;;;;;;;9.18;6.60;;;;;;;;;;5016102;28;20226;-82
2023/07/01 11:33:09;;;;;;;11.25;6.70;;;;;;;;;;5020294;28;20660;-82
2023/07/01 11:36:04;;;;;;;10.90;6.90;;;;;;;;;;5022749;28;20228;-80
2023/07/01 11:38:30;;;;;;;8.23;6.90;;;;;;;;;;5015013;28;20237;-80
2023/07/01 11:40:55;;;;;;;9.18;6.93;;;;;;;;;;5000918;28;20227;-80
2023/07/01 11:43:22;;;;;;;11.18;7.30;;;;;;;;;;5022623;28;20942;-82
2023/07/01 11:45:48;;;;;;;10.77;7.32;;;;;;;;;;5022557;28;20254;-76
2023/07/01 11:48:13;;;;;;;9.07;7.13;;;;;;;;;;4992946;28;20797;-80
2023/07/01 11:50:51;;;;;;;10.82;7.72;;;;;;;;;;4994988;28;20234;-76
2023/07/01 11:53:16;;;;;;;9.48;6.93;;;;;;;;;;5022620;28;20230;-78
2023/07/01 11:55:41;;;;;;;8.60;7.00;;;;;;;;;;5022484;28;20222;-76
2023/07/01 11:58:25;;;;;;;9.68;7.40;;;;;;;;;;5024503;28;20226;-78
2023/07/01 12:00:51;;;;;;;8.65;7.03;;;;;;;;;;5021536;28;20787;-78
2023/07/01 12:03:16;;;;;;;11.77;7.60;;;;;;;;;;5012248;28;20283;-79
2023/07/01 12:05:44;;;;;;;8.60;7.07;;;;;;;;;;5015062;28;20280;-79
2023/07/01 12:08:09;;;;;;;10.57;7.30;;;;;;;;;;5020834;28;20211;-78
2023/07/01 12:10:35;;;;;;;10.30;7.25;;;;;;;;;;5017534;28;20342;-80
2023/07/01 12:13:00;;;;;;;10.82;7.20;;;;;;;;;;5005897;28;20234;-77
2023/07/01 12:15:26;;;;;;;10.40;7.63;;;;;;;;;;5012126;28;20218;-78
2023/07/01 12:17:53;;;;;;;9.90;6.95;;;;;;;;;;5015017;28;20238;-81
2023/07/01 12:20:19;;;;;;;9.38;7.25;;;;;;;;;;4996095;28;20223;-84
2023/07/01 12:22:45;;;;;;;14.30;7.70;;;;;;;;;;4994952;28;20362;-76
2023/07/01 12:25:10;;;;;;;10.23;7.60;;;;;;;;;;5017403;28;20309;-76
2023/07/01 12:27:35;;;;;;;10.60;7.28;;;;;;;;;;5025492;28;20278;-76
2023/07/01 12:30:01;;;;;;;10.10;7.30;;;;;;;;;;5016093;28;20223;-79
2023/07/01 12:32:26;;;;;;;10.43;7.28;;;;;;;;;;4997491;28;20234;-79
2023/07/01 12:34:52;;;;;;;11.30;7.40;;;;;;;;;;5002042;28;20219;-77
2023/07/01 12:37:17;;;;;;;11.40;7.20;;;;;;;;;;5026897;28;20731;-78
2023/07/01 12:39:44;;;;;;;8.70;7.25;;;;;;;;;;5022260;28;20230;-79
2023/07/01 12:42:10;;;;;;;9.55;7.45;;;;;;;;;;5022191;28;20218;-78
2023/07/01 12:44:35;;;;;;;9.63;6.90;;;;;;;;;;5019734;28;20263;-78
2023/07/01 12:47:00;;;;;;;12.13;7.03;;;;;;;;;;5005503;28;20222;-79
2023/07/01 12:49:27;;;;;;;10.70;7.38;;;;;;;;;;5022770;28;20226;-80
2023/07/01 12:51:52;;;;;;;8.98;7.22;;;;;;;;;;5019252;28;20241;-80
2023/07/01 12:54:17;;;;;;;11.10;7.65;;;;;;;;;;5020812;28;20225;-81
2023/07/01 12:56:42;;;;;;;12.20;7.57;;;;;;;;;;5024117;28;20214;-78
2023/07/01 12:59:08;;;;;;;9.40;7.35;;;;;;;;;;5023821;28;20886;-82
2023/07/01 13:01:33;;;;;;;13.02;7.35;;;;;;;;;;5023897;28;20219;-82
2023/07/01 13:03:58;;;;;;;9.02;7.28;;;;;;;;;;5036003;28;20222;-80
2023/07/01 13:06:27;;;;;;;9.15;7.50;;;;;;;;;;5025492;28;20753;-81
2023/07/01 13:08:56;;;;;;;11.90;7.70;;;;;;;;;;5017115;28;20233;-79
2023/07/01 13:11:21;;;;;;;10.70;7.68;;;;;;;;;;5010271;28;20229;-80
2023/07/01 13:13:46;;;;;;;11.35;7.80;;;;;;;;;;5027866;28;20230;-77
2023/07/01 13:16:26;;;;;;;11.25;7.93;;;;;;;;;;5025641;28;20217;-79
2023/07/01 13:18:51;;;;;;;9.75;6.93;;;;;;;;;;5015451;28;20325;-76
2023/07/01 13:21:16;;;;;;;9.98;7.85;;;;;;;;;;5033610;28;21038;-77
2023/07/01 13:23:42;;;;;;;9.60;7.45;;;;;;;;;;5024093;28;20712;-77
2023/07/01 13:26:07;;;;;;;10.27;7.63;;;;;;;;;;5018532;28;20225;-76
2023/07/01 13:28:32;;;;;;;9.38;7.63;;;;;;;;;;5021898;28;20726;-78
2023/07/01 13:30:57;;;;;;;9.45;7.32;;;;;;;;;;5023488;28;20245;-77
2023/07/01 13:33:23;;;;;;;12.00;7.60;;;;;;;;;;5018106;28;20291;-77
2023/07/01 13:35:49;;;;;;;9.32;7.40;;;;;;;;;;5022992;28;20296;-81
2023/07/01 13:38:14;;;;;;;10.65;6.90;;;;;;;;;;5022888;28;20227;-78
2023/07/01 13:40:41;;;;;;;8.32;7.10;;;;;;;;;;5015875;28;20234;-77
2023/07/01 13:43:07;;;;;;;10.88;7.20;;;;;;;;;;5024638;28;20234;-77
2023/07/01 13:45:33;;;;;;;9.63;6.90;;;;;;;;;;5019069;28;20222;-77
2023/07/01 13:47:59;;;;;;;10.10;7.13;;;;;;;;;;5023132;28;20234;-78
2023/07/01 13:50:24;;;;;;;11.55;7.10;;;;;;;;;;5034667;28;20231;-81
2023/07/01 13:52:50;;;;;;;8.60;7.10;;;;;;;;;;5024330;28;20677;-77
2023/07/01 13:55:19;;;;;;;9.90;6.75;;;;;;;;;;5021687;28;20209;-77
2023/07/01 13:57:48;;;;;;;10.00;7.07;;;;;;;;;;5021869;28;20774;-78
2023/07/01 14:00:21;;;;;;;8.13;6.63;;;;;;;;;;4998057;28;20220;-78
2023/07/01 14:02:47;;;;;;;8.65;6.63;;;;;;;;;;4997774;28;20603;-80
2023/07/01 14:05:12;;;;;;;11.73;7.30;;;;;;;;;;5011529;28;20317;-81
2023/07/01 14:07:38;;;;;;;12.18;7.10;;;;;;;;;;5010722;28;20230;-79
2023/07/01 14:10:05;;;;;;;10.80;7.28;;;;;;;;;;4998319;28;20789;-79
2023/07/01 14:12:30;;;;;;;8.07;6.65;;;;;;;;;;5017586;28;20321;-78
2023/07/01 14:14:55;;;;;;;11.18;6.88;;;;;;;;;;5025600;28;20310;-78
2023/07/01 14:17:20;;;;;;;8.40;6.43;;;;;;;;;;5016438;28;20226;-77
2023/07/01 14:19:47;;;;;;;14.18;7.78;;;;;;;;;;5016503;28;20230;-77
2023/07/01 14:22:12;;;;;;;9.90;6.72;;;;;;;;;;5020030;28;20597;-77
2023/07/01 14:24:37;;;;;;;8.00;6.60;;;;;;;;;;5022134;28;20231;-78
2023/07/01 14:27:03;;;;;;;8.45;6.50;;;;;;;;;;5020646;28;20923;-78
2023/07/01 14:29:28;;;;;;;8.65;6.40;;;;;;;;;;5024394;28;20229;-77